createdAt,value
2022-11-05T00:00:34.971Z,28.38
2022-11-05T00:03:20.360Z,28.63
2022-11-05T00:06:08.305Z,33.03
2022-11-05T00:08:53.997Z,32.28
2022-11-05T00:11:41.282Z,28.40
2022-11-05T00:14:27.137Z,39.67
2022-11-05T00:16:53.721Z,40.65
2022-11-05T00:19:20.625Z,48.70
2022-11-05T00:22:06.540Z,39.60
2022-11-05T00:24:52.318Z,39.33
2022-11-05T00:27:19.077Z,40.78
2022-11-05T00:29:45.674Z,37.40
2022-11-05T00:32:13.344Z,33.30
2022-11-05T00:34:39.933Z,31.42
2022-11-05T00:37:07.175Z,33.10
2022-11-05T00:39:33.784Z,33.33
2022-11-05T00:42:19.779Z,36.45
2022-11-05T00:45:01.792Z,34.58
2022-11-05T00:47:48.729Z,35.13
2022-11-05T00:50:15.476Z,33.00
2022-11-05T00:52:58.023Z,38.78
2022-11-05T00:55:34.056Z,33.28
2022-11-05T00:58:03.519Z,30.45
2022-11-05T01:00:32.304Z,29.67
2022-11-05T01:03:01.530Z,31.55
2022-11-05T01:05:29.839Z,25.83
2022-11-05T01:07:57.625Z,26.10
2022-11-05T01:10:25.192Z,33.65
2022-11-05T01:12:52.272Z,27.88
2022-11-05T01:15:20.121Z,32.20
2022-11-05T01:17:47.502Z,25.35
2022-11-05T01:20:15.029Z,22.65
2022-11-05T01:22:42.521Z,29.45
2022-11-05T01:25:10.109Z,29.88
2022-11-05T01:27:37.464Z,27.52
2022-11-05T01:30:07.490Z,24.33
2022-11-05T01:32:36.442Z,25.83
2022-11-05T01:35:05.634Z,27.88
2022-11-05T01:37:33.755Z,30.25
2022-11-05T01:40:00.396Z,28.02
2022-11-05T01:42:28.627Z,27.65
2022-11-05T01:44:59.974Z,30.85
2022-11-05T01:47:38.223Z,26.73
2022-11-05T01:50:36.117Z,21.75
2022-11-05T01:53:14.899Z,22.63
2022-11-05T01:55:51.739Z,23.15
2022-11-05T01:58:22.736Z,22.90
2022-11-05T02:00:50.415Z,18.73
2022-11-05T02:03:17.995Z,18.00
2022-11-05T02:05:46.576Z,20.23
2022-11-05T02:08:25.961Z,22.50
2022-11-05T02:10:53.346Z,22.40
2022-11-05T02:13:19.913Z,19.13
2022-11-05T02:16:19.317Z,22.95
2022-11-05T02:19:03.281Z,26.00
2022-11-05T02:21:36.451Z,19.70
2022-11-05T02:24:21.240Z,25.05
2022-11-05T02:27:15.951Z,28.00
2022-11-05T02:30:04.054Z,17.88
2022-11-05T02:32:51.876Z,23.33
2022-11-05T02:35:49.172Z,24.23
2022-11-05T02:38:37.310Z,23.90
2022-11-05T02:41:30.437Z,23.52
2022-11-05T02:44:35.361Z,14.38
2022-11-05T02:47:41.205Z,19.33
2022-11-05T02:50:24.674Z,22.25
2022-11-05T02:52:59.842Z,21.98
2022-11-05T02:55:45.302Z,21.98
2022-11-05T02:58:13.735Z,23.80
2022-11-05T03:00:54.658Z,23.83
2022-11-05T03:03:32.523Z,21.33
2022-11-05T03:06:27.546Z,24.80
2022-11-05T03:09:15.306Z,23.15
2022-11-05T03:12:02.846Z,26.65
2022-11-05T03:14:50.991Z,27.88
2022-11-05T03:17:55.631Z,22.25
2022-11-05T03:20:47.962Z,24.67
2022-11-05T03:23:26.751Z,28.10
2022-11-05T03:26:17.550Z,27.85
2022-11-05T03:28:52.067Z,29.00
2022-11-05T03:31:20.499Z,29.70
2022-11-05T03:33:48.911Z,37.35
2022-11-05T03:36:21.917Z,26.67
2022-11-05T03:38:51.327Z,35.60
2022-11-05T03:41:21.033Z,34.50
2022-11-05T03:43:52.464Z,36.45
2022-11-05T03:46:28.900Z,32.05
2022-11-05T03:48:58.937Z,35.40
2022-11-05T03:51:48.792Z,39.17
2022-11-05T03:54:15.563Z,42.22
2022-11-05T03:57:05.976Z,30.75
2022-11-05T03:59:38.369Z,34.38
2022-11-05T04:02:05.660Z,35.60
2022-11-05T04:04:32.341Z,34.92
2022-11-05T04:07:18.144Z,38.75
2022-11-05T04:10:03.225Z,37.20
2022-11-05T04:12:48.982Z,35.08
2022-11-05T04:15:15.712Z,43.58
2022-11-05T04:17:43.004Z,45.88
2022-11-05T04:20:28.553Z,52.10
2022-11-05T04:23:25.510Z,51.10
2022-11-05T04:25:52.104Z,54.55
2022-11-05T04:28:19.639Z,51.83
2022-11-05T04:30:46.269Z,53.03
2022-11-05T04:33:17.382Z,55.53
2022-11-05T04:35:47.022Z,63.58
2022-11-05T04:38:17.186Z,66.53
2022-11-05T04:40:45.270Z,66.60
2022-11-05T04:43:15.623Z,62.90
2022-11-05T04:45:43.199Z,70.75
2022-11-05T04:48:11.261Z,63.20
2022-11-05T04:50:38.025Z,63.30
2022-11-05T04:53:04.906Z,77.93
2022-11-05T04:55:32.272Z,78.03
2022-11-05T04:57:58.995Z,68.20
2022-11-05T05:00:26.422Z,71.85
2022-11-05T05:02:53.068Z,71.38
2022-11-05T05:05:21.468Z,70.75
2022-11-05T05:07:48.081Z,76.28
2022-11-05T05:10:15.354Z,76.32
2022-11-05T05:12:41.929Z,75.65
2022-11-05T05:15:09.371Z,76.38
2022-11-05T05:17:36.023Z,64.63
2022-11-05T05:20:22.315Z,71.03
2022-11-05T05:22:55.484Z,67.38
2022-11-05T05:25:23.531Z,71.03
2022-11-05T05:27:50.500Z,71.72
2022-11-05T05:30:18.325Z,72.70
2022-11-05T05:32:44.945Z,71.68
2022-11-05T05:35:12.279Z,74.22
2022-11-05T05:37:38.909Z,74.75
2022-11-05T05:40:06.671Z,71.05
2022-11-05T05:42:36.320Z,75.32
2022-11-05T05:45:06.670Z,66.28
2022-11-05T05:47:33.219Z,68.45
2022-11-05T05:50:00.443Z,66.75
2022-11-05T05:52:27.017Z,72.88
2022-11-05T05:54:54.276Z,69.43
2022-11-05T05:57:20.866Z,70.18
2022-11-05T05:59:48.111Z,65.18
2022-11-05T06:02:15.900Z,73.38
2022-11-05T06:04:42.975Z,73.75
2022-11-05T06:07:10.238Z,69.95
2022-11-05T06:09:36.878Z,74.20
2022-11-05T06:12:04.410Z,77.10
2022-11-05T06:14:30.983Z,76.38
2022-11-05T06:16:58.206Z,74.65
2022-11-05T06:19:24.800Z,71.03
2022-11-05T06:21:52.047Z,68.30
2022-11-05T06:24:18.639Z,76.47
2022-11-05T06:26:46.055Z,77.82
2022-11-05T06:29:12.728Z,68.00
2022-11-05T06:31:39.999Z,68.00
2022-11-05T06:34:06.769Z,76.25
2022-11-05T06:36:34.111Z,76.32
2022-11-05T06:39:00.700Z,69.32
2022-11-05T06:41:27.965Z,72.13
2022-11-05T06:43:54.648Z,65.03
2022-11-05T06:46:22.021Z,71.18
2022-11-05T06:48:48.635Z,73.53
2022-11-05T06:51:16.166Z,70.15
2022-11-05T06:53:42.773Z,68.25
2022-11-05T06:56:10.023Z,77.00
2022-11-05T06:58:37.087Z,61.60
2022-11-05T07:01:09.751Z,66.55
2022-11-05T07:03:37.680Z,66.22
2022-11-05T07:06:05.988Z,63.08
2022-11-05T07:08:35.460Z,61.38
2022-11-05T07:11:02.199Z,76.10
2022-11-05T07:13:29.624Z,67.00
2022-11-05T07:15:56.581Z,62.13
2022-11-05T07:18:24.237Z,70.75
2022-11-05T07:20:50.815Z,62.45
2022-11-05T07:23:18.171Z,67.75
2022-11-05T07:25:45.022Z,63.78
2022-11-05T07:28:11.989Z,64.28
2022-11-05T07:30:39.214Z,63.30
2022-11-05T07:33:06.477Z,68.30
2022-11-05T07:35:33.213Z,61.78
2022-11-05T07:38:00.509Z,70.68
2022-11-05T07:40:29.106Z,59.35
2022-11-05T07:43:01.381Z,57.60
2022-11-05T07:45:29.666Z,62.25
2022-11-05T07:48:02.615Z,48.17
2022-11-05T07:50:31.611Z,43.25
2022-11-05T07:53:07.491Z,41.70
2022-11-05T07:55:35.378Z,32.03
2022-11-05T07:58:03.462Z,30.13
2022-11-05T08:00:30.741Z,29.58
2022-11-05T08:03:18.341Z,23.40
2022-11-05T08:05:47.474Z,24.80
2022-11-05T08:08:17.463Z,23.08
2022-11-05T08:10:44.153Z,25.00
2022-11-05T08:13:13.559Z,21.77
2022-11-05T08:15:42.103Z,18.17
2022-11-05T08:18:13.234Z,19.05
2022-11-05T08:20:41.053Z,24.60
2022-11-05T08:23:09.055Z,21.70
2022-11-05T08:25:39.568Z,22.60
2022-11-05T08:28:13.761Z,24.13
2022-11-05T08:30:41.023Z,21.70
2022-11-05T08:33:12.083Z,23.58
2022-11-05T08:35:39.955Z,26.48
2022-11-05T08:38:08.244Z,23.83
2022-11-05T08:40:36.189Z,19.25
2022-11-05T08:43:05.838Z,26.17
2022-11-05T08:45:33.215Z,21.80
2022-11-05T08:48:01.922Z,26.30
2022-11-05T08:50:28.821Z,20.52
2022-11-05T08:52:56.361Z,20.20
2022-11-05T08:55:23.337Z,24.65
2022-11-05T08:57:59.097Z,28.92
2022-11-05T09:00:26.877Z,20.80
2022-11-05T09:02:54.334Z,21.95
2022-11-05T09:05:21.449Z,25.92
2022-11-05T09:07:49.665Z,23.85
2022-11-05T09:10:16.395Z,16.60
2022-11-05T09:12:44.113Z,24.35
2022-11-05T09:15:11.107Z,21.42
2022-11-05T09:17:38.164Z,22.83
2022-11-05T09:20:07.294Z,25.63
2022-11-05T09:22:37.867Z,19.15
2022-11-05T09:25:08.467Z,22.65
2022-11-05T09:27:35.650Z,17.80
2022-11-05T09:30:03.582Z,23.92
2022-11-05T09:32:33.951Z,22.52
2022-11-05T09:35:01.486Z,20.70
2022-11-05T09:37:29.190Z,22.98
2022-11-05T09:39:56.409Z,21.38
2022-11-05T09:42:28.252Z,21.23
2022-11-05T09:45:01.993Z,18.53
2022-11-05T09:47:35.181Z,19.55
2022-11-05T09:50:07.721Z,21.23
2022-11-05T09:52:35.216Z,16.65
2022-11-05T09:55:04.160Z,25.00
2022-11-05T09:57:45.624Z,20.27
2022-11-05T10:00:16.707Z,24.77
2022-11-05T10:02:52.349Z,21.30
2022-11-05T10:05:20.647Z,27.38
2022-11-05T10:07:57.656Z,15.77
2022-11-05T10:10:41.842Z,19.45
2022-11-05T10:13:35.169Z,16.52
2022-11-05T10:16:25.433Z,19.23
2022-11-05T10:18:59.384Z,24.95
2022-11-05T10:21:51.493Z,19.60
2022-11-05T10:24:16.254Z,16.38
2022-11-05T10:26:46.411Z,18.90
2022-11-05T10:29:19.297Z,19.70
2022-11-05T10:31:46.177Z,22.73
2022-11-05T10:34:17.956Z,19.80
2022-11-05T10:36:44.649Z,24.10
2022-11-05T10:39:19.096Z,20.48
2022-11-05T10:42:20.901Z,15.23
2022-11-05T10:44:53.918Z,12.40
2022-11-05T10:47:37.031Z,19.90
2022-11-05T10:50:14.026Z,13.30
2022-11-05T10:52:53.631Z,21.13
2022-11-05T10:55:35.443Z,15.50
2022-11-05T10:58:25.395Z,19.33
2022-11-05T11:00:52.657Z,33.92
2022-11-05T11:03:45.001Z,18.23
2022-11-05T11:06:21.682Z,12.83
2022-11-05T11:08:50.180Z,23.90
2022-11-05T11:11:36.684Z,16.00
2022-11-05T11:14:06.213Z,17.02
2022-11-05T11:16:39.764Z,12.07
2022-11-05T11:19:23.172Z,18.70
2022-11-05T11:22:14.013Z,16.05
2022-11-05T11:24:48.099Z,19.27
2022-11-05T11:27:22.265Z,16.88
2022-11-05T11:29:55.862Z,21.65
2022-11-05T11:32:27.257Z,17.35
2022-11-05T11:34:57.442Z,17.52
2022-11-05T11:37:41.738Z,17.52
2022-11-05T11:40:22.977Z,15.25
2022-11-05T11:42:54.200Z,18.40
2022-11-05T11:45:28.867Z,18.80
2022-11-05T11:47:57.140Z,18.42
2022-11-05T11:50:43.030Z,24.50
2022-11-05T11:53:21.898Z,17.23
2022-11-05T11:55:55.258Z,22.48
2022-11-05T11:58:23.558Z,16.80
2022-11-05T12:00:59.423Z,17.23
2022-11-05T12:03:37.953Z,16.67
2022-11-05T12:06:16.284Z,18.92
2022-11-05T12:09:07.296Z,16.30
2022-11-05T12:11:50.878Z,14.80
2022-11-05T12:17:04.456Z,20.88
2022-11-05T12:19:52.540Z,11.95
2022-11-05T12:22:42.868Z,12.77
2022-11-05T12:25:13.257Z,14.95
2022-11-05T12:28:07.212Z,19.20
2022-11-05T12:31:00.376Z,19.50
2022-11-05T12:33:47.188Z,19.40
2022-11-05T12:36:30.716Z,13.70
2022-11-05T12:41:40.437Z,14.20
2022-11-05T12:44:15.365Z,17.63
2022-11-05T12:46:58.534Z,17.23
2022-11-05T12:49:33.918Z,14.35
2022-11-05T12:52:26.889Z,12.88
2022-11-05T12:55:17.928Z,17.27
2022-11-05T12:57:47.882Z,12.15
2022-11-05T13:00:22.608Z,15.57
2022-11-05T13:03:23.116Z,16.10
2022-11-05T13:06:06.358Z,12.15
2022-11-05T13:08:48.784Z,13.95
2022-11-05T13:11:19.247Z,14.32
2022-11-05T13:14:00.314Z,13.25
2022-11-05T13:16:31.014Z,9.73
2022-11-05T13:19:06.658Z,10.35
2022-11-05T13:21:36.414Z,12.90
2022-11-05T13:24:17.658Z,11.02
2022-11-05T13:27:15.035Z,14.68
2022-11-05T13:29:49.198Z,11.38
2022-11-05T13:32:42.087Z,7.13
2022-11-05T13:35:16.740Z,14.10
2022-11-05T13:38:05.759Z,23.33
2022-11-05T13:40:44.644Z,10.85
2022-11-05T13:43:33.935Z,11.82
2022-11-05T13:46:25.291Z,10.38
2022-11-05T13:48:52.519Z,17.30
2022-11-05T13:51:39.358Z,10.30
2022-11-05T13:54:12.484Z,8.45
2022-11-05T13:57:06.344Z,8.23
2022-11-05T13:59:57.023Z,8.95
2022-11-05T14:02:34.346Z,11.80
2022-11-05T14:05:02.623Z,11.32
2022-11-05T14:07:32.640Z,10.55
2022-11-05T14:10:26.777Z,12.55
2022-11-05T14:12:57.291Z,10.15
2022-11-05T14:15:28.460Z,9.25
2022-11-05T14:18:05.454Z,10.88
2022-11-05T14:20:32.693Z,6.43
2022-11-05T14:23:17.639Z,9.38
2022-11-05T14:25:44.901Z,8.80
2022-11-05T14:28:36.737Z,8.55
2022-11-05T14:31:41.167Z,11.50
2022-11-05T14:34:12.074Z,10.95
2022-11-05T14:36:43.193Z,8.43
2022-11-05T14:39:24.871Z,12.38
2022-11-05T14:41:58.303Z,7.47
2022-11-05T14:44:26.434Z,11.65
2022-11-05T14:46:57.264Z,8.65
2022-11-05T14:49:32.108Z,10.95
2022-11-05T14:52:05.127Z,8.10
2022-11-05T14:54:49.227Z,7.57
2022-11-05T14:57:44.746Z,10.35
2022-11-05T15:00:34.343Z,13.05
2022-11-05T15:03:04.096Z,11.60
2022-11-05T15:05:31.336Z,9.25
2022-11-05T15:07:58.909Z,7.93
2022-11-05T15:10:33.551Z,9.20
2022-11-05T15:13:05.931Z,13.85
2022-11-05T15:15:43.792Z,11.48
2022-11-05T15:18:33.265Z,9.38
2022-11-05T15:21:03.424Z,10.55
2022-11-05T15:23:42.546Z,10.73
2022-11-05T15:26:22.432Z,9.40
2022-11-05T15:28:54.023Z,14.27
2022-11-05T15:31:37.442Z,9.80
2022-11-05T15:34:25.406Z,7.60
2022-11-05T15:37:25.560Z,8.25
2022-11-05T15:39:54.582Z,10.68
2022-11-05T15:42:26.183Z,7.65
2022-11-05T15:44:55.660Z,7.60
2022-11-05T15:47:34.188Z,10.25
2022-11-05T15:50:14.939Z,10.27
2022-11-05T15:52:51.545Z,5.75
2022-11-05T15:55:23.888Z,9.15
2022-11-05T15:58:00.412Z,9.15
2022-11-05T16:00:30.926Z,10.73
2022-11-05T16:03:04.534Z,9.88
2022-11-05T16:05:35.386Z,6.90
2022-11-05T16:08:04.163Z,11.27
2022-11-05T16:10:38.782Z,8.30
2022-11-05T16:13:40.780Z,9.18
2022-11-05T16:16:14.182Z,9.63
2022-11-05T16:18:41.571Z,8.18
2022-11-05T16:21:22.806Z,10.25
2022-11-05T16:23:49.485Z,12.82
2022-11-05T16:29:29.218Z,8.02
2022-11-05T16:31:57.657Z,7.45
2022-11-05T16:34:27.255Z,9.93
2022-11-05T16:36:56.557Z,12.20
2022-11-05T16:39:23.367Z,9.85
2022-11-05T16:41:50.419Z,10.02
2022-11-05T16:44:17.135Z,11.73
2022-11-05T16:46:47.612Z,12.88
2022-11-05T16:49:15.716Z,13.82
2022-11-05T16:51:43.436Z,10.75
2022-11-05T16:54:10.823Z,8.35
2022-11-05T16:56:39.724Z,11.73
2022-11-05T16:59:09.616Z,8.57
2022-11-05T17:01:39.271Z,10.82
2022-11-05T17:04:06.593Z,17.50
2022-11-05T17:06:33.272Z,13.02
2022-11-05T17:09:00.220Z,8.25
2022-11-05T17:11:26.833Z,9.07
2022-11-05T17:13:53.938Z,13.85
2022-11-05T17:16:20.596Z,12.20
2022-11-05T17:18:47.965Z,15.88
2022-11-05T17:21:15.310Z,9.80
2022-11-05T17:23:42.545Z,12.30
2022-11-05T17:26:11.797Z,10.00
2022-11-05T17:28:40.768Z,11.88
2022-11-05T17:31:09.717Z,13.48
2022-11-05T17:33:37.029Z,13.85
2022-11-05T17:36:08.037Z,8.07
2022-11-05T17:38:35.699Z,10.13
2022-11-05T17:41:02.416Z,10.45
2022-11-05T17:43:29.751Z,11.25
2022-11-05T17:46:01.547Z,15.00
2022-11-05T17:48:31.602Z,7.88
2022-11-05T17:50:58.299Z,9.70
2022-11-05T17:53:25.018Z,15.48
2022-11-05T17:55:51.647Z,12.40
2022-11-05T17:58:18.784Z,12.05
2022-11-05T18:00:46.211Z,13.40
2022-11-05T18:03:13.825Z,15.15
2022-11-05T18:05:41.871Z,15.70
2022-11-05T18:08:09.414Z,12.27
2022-11-05T18:10:37.783Z,10.25
2022-11-05T18:13:05.275Z,11.77
2022-11-05T18:15:32.050Z,12.00
2022-11-05T18:17:58.956Z,19.40
2022-11-05T18:20:25.736Z,13.25
2022-11-05T18:22:52.444Z,17.13
2022-11-05T18:25:19.372Z,13.23
2022-11-05T18:27:46.666Z,15.38
2022-11-05T18:30:15.311Z,22.60
2022-11-05T18:32:44.503Z,19.15
2022-11-05T18:35:11.736Z,14.13
2022-11-05T18:37:39.561Z,15.25
2022-11-05T18:40:07.652Z,17.80
2022-11-05T18:42:34.997Z,18.85
2022-11-05T18:45:01.740Z,14.60
2022-11-05T18:47:29.085Z,20.88
2022-11-05T18:49:55.721Z,13.35
2022-11-05T18:52:22.786Z,14.65
2022-11-05T18:54:49.487Z,16.88
2022-11-05T18:57:16.985Z,18.90
2022-11-05T18:59:46.544Z,15.85
2022-11-05T19:02:14.954Z,16.42
2022-11-05T19:05:00.278Z,11.13
2022-11-05T19:07:29.319Z,14.73
2022-11-05T19:09:56.169Z,12.57
2022-11-05T19:12:23.425Z,13.43
2022-11-05T19:14:50.097Z,15.88
2022-11-05T19:17:17.361Z,13.88
2022-11-05T19:19:44.102Z,10.88
2022-11-05T19:22:11.633Z,15.68
2022-11-05T19:24:38.283Z,11.82
2022-11-05T19:27:05.144Z,13.55
2022-11-05T19:29:31.840Z,14.20
2022-11-05T19:31:59.166Z,18.48
2022-11-05T19:34:25.835Z,16.92
2022-11-05T19:36:53.175Z,14.13
2022-11-05T19:39:19.834Z,16.50
2022-11-05T19:41:48.627Z,15.40
2022-11-05T19:44:15.203Z,17.02
2022-11-05T19:46:44.162Z,17.02
2022-11-05T19:49:11.164Z,11.95
2022-11-05T19:51:38.275Z,12.60
2022-11-05T19:54:06.210Z,10.77
2022-11-05T19:56:34.605Z,13.57
2022-11-05T19:59:03.176Z,18.70
2022-11-05T20:01:31.398Z,19.60
2022-11-05T20:03:59.315Z,21.38
2022-11-05T20:06:32.056Z,15.90
2022-11-05T20:11:50.021Z,15.90
2022-11-05T20:14:17.168Z,12.93
2022-11-05T20:16:45.813Z,15.77
2022-11-05T20:19:15.420Z,11.65
2022-11-05T20:21:43.392Z,15.15
2022-11-05T20:24:12.428Z,11.43
2022-11-05T20:26:39.880Z,15.80
2022-11-05T20:29:07.292Z,20.05
2022-11-05T20:31:34.367Z,18.70
2022-11-05T20:34:01.860Z,17.85
2022-11-05T20:36:29.656Z,16.88
2022-11-05T20:38:58.407Z,12.93
2022-11-05T20:41:25.995Z,19.05
2022-11-05T20:43:53.913Z,17.50
2022-11-05T20:46:22.263Z,18.58
2022-11-05T20:48:49.917Z,14.75
2022-11-05T20:51:19.161Z,10.55
2022-11-05T20:53:47.093Z,17.20
2022-11-05T20:56:19.458Z,11.10
2022-11-05T20:58:47.451Z,21.05
2022-11-05T21:01:16.391Z,14.68
2022-11-05T21:03:45.020Z,12.30
2022-11-05T21:06:12.689Z,13.18
2022-11-05T21:08:40.557Z,19.83
2022-11-05T21:11:07.490Z,14.30
2022-11-05T21:13:34.667Z,16.50
2022-11-05T21:16:02.347Z,14.27
2022-11-05T21:18:32.278Z,10.68
2022-11-05T21:21:02.234Z,10.48
2022-11-05T21:23:29.762Z,14.27
2022-11-05T21:25:56.446Z,10.68
2022-11-05T21:28:23.775Z,15.40
2022-11-05T21:30:50.424Z,10.30
2022-11-05T21:33:18.977Z,17.83
2022-11-05T21:35:47.587Z,9.38
2022-11-05T21:38:16.434Z,14.20
2022-11-05T21:40:43.759Z,9.55
2022-11-05T21:43:12.129Z,9.90
2022-11-05T21:45:40.517Z,16.25
2022-11-05T21:48:08.680Z,13.68
2022-11-05T21:50:56.751Z,11.57
2022-11-05T21:53:43.136Z,9.57
2022-11-05T21:56:41.893Z,18.17
2022-11-05T21:59:31.833Z,10.63
2022-11-05T22:02:02.838Z,9.75
2022-11-05T22:04:31.341Z,11.13
2022-11-05T22:06:58.770Z,14.95
2022-11-05T22:09:26.282Z,12.00
2022-11-05T22:11:54.607Z,9.55
2022-11-05T22:14:23.440Z,9.13
2022-11-05T22:16:50.151Z,9.95
2022-11-05T22:19:17.634Z,15.38
2022-11-05T22:21:44.282Z,13.25
2022-11-05T22:24:10.987Z,16.77
2022-11-05T22:26:40.816Z,9.52
2022-11-05T22:29:08.114Z,9.88
2022-11-05T22:31:36.686Z,11.82
2022-11-05T22:34:04.526Z,10.95
2022-11-05T22:36:32.627Z,12.75
2022-11-05T22:38:59.305Z,8.55
2022-11-05T22:41:26.736Z,15.68
2022-11-05T22:43:53.342Z,13.05
2022-11-05T22:46:23.591Z,10.25
2022-11-05T22:48:51.074Z,13.93
2022-11-05T22:51:23.096Z,13.98
2022-11-05T22:53:50.654Z,11.88
2022-11-05T22:56:20.151Z,14.98
2022-11-05T22:58:48.351Z,7.80
2022-11-05T23:01:15.903Z,9.48
2022-11-05T23:03:45.391Z,11.73
2022-11-05T23:06:36.543Z,13.98
2022-11-05T23:09:35.319Z,10.93
2022-11-05T23:12:04.580Z,10.10
2022-11-05T23:14:31.584Z,14.35
2022-11-05T23:17:17.067Z,13.70
2022-11-05T23:20:02.557Z,10.35
2022-11-05T23:22:50.631Z,14.63
2022-11-05T23:25:20.544Z,11.52
2022-11-05T23:27:50.215Z,13.32
2022-11-05T23:30:22.308Z,10.82
2022-11-05T23:32:50.559Z,18.37
2022-11-05T23:35:38.204Z,9.30
2022-11-05T23:38:24.144Z,15.43
2022-11-05T23:41:09.394Z,19.50
2022-11-05T23:43:55.129Z,17.55
2022-11-05T23:46:40.709Z,15.45
2022-11-05T23:49:07.978Z,10.63
2022-11-05T23:51:34.578Z,13.95
2022-11-05T23:54:01.834Z,10.35
2022-11-05T23:56:28.425Z,9.60
2022-11-05T23:58:55.670Z,14.18
